sensor_id;sensor_type;location;lat;lon;timestamp;pressure;altitude;pressure_sealevel;temperature;humidity
49999;BME280;68071;45.062;7.356;2024-02-26T00:00:38;94074.63;;;4.20;100.00
49999;BME280;68071;45.062;7.356;2024-02-26T00:03:42;94064.47;;;4.24;100.00
49999;BME280;68071;45.062;7.356;2024-02-26T00:06:48;94060.19;;;3.69;100.00
49999;BME280;68071;45.062;7.356;2024-02-26T00:09:55;94059.41;;;3.54;100.00
49999;BME280;68071;45.062;7.356;2024-02-26T00:12:58;94062.13;;;3.54;100.00
49999;BME280;68071;45.062;7.356;2024-02-26T00:16:03;94061.38;;;3.61;100.00
49999;BME280;68071;45.062;7.356;2024-02-26T00:25:23;94049.63;;;3.31;100.00
49999;BME280;68071;45.062;7.356;2024-02-26T00:28:27;94049.66;;;3.60;100.00
49999;BME280;68071;45.062;7.356;2024-02-26T00:31:33;94046.53;;;3.73;100.00
49999;BME280;68071;45.062;7.356;2024-02-26T00:34:37;94043.81;;;3.73;100.00
49999;BME280;68071;45.062;7.356;2024-02-26T00:37:41;94041.84;;;3.77;100.00
49999;BME280;68071;45.062;7.356;2024-02-26T00:40:47;94031.69;;;3.88;100.00
49999;BME280;68071;45.062;7.356;2024-02-26T00:43:50;94021.16;;;3.83;100.00
49999;BME280;68071;45.062;7.356;2024-02-26T00:46:54;94024.25;;;3.92;100.00
49999;BME280;68071;45.062;7.356;2024-02-26T00:49:59;94019.63;;;3.68;100.00
49999;BME280;68071;45.062;7.356;2024-02-26T00:53:03;94012.97;;;3.69;100.00
49999;BME280;68071;45.062;7.356;2024-02-26T00:56:07;94012.19;;;3.57;100.00
49999;BME280;68071;45.062;7.356;2024-02-26T00:59:11;94009.84;;;3.52;100.00
49999;BME280;68071;45.062;7.356;2024-02-26T01:02:14;94005.56;;;3.69;100.00
49999;BME280;68071;45.062;7.356;2024-02-26T01:05:19;94002.44;;;3.56;100.00
49999;BME280;68071;45.062;7.356;2024-02-26T01:08:23;94002.03;;;3.65;100.00
49999;BME280;68071;45.062;7.356;2024-02-26T01:11:27;93996.53;;;3.90;100.00
49999;BME280;68071;45.062;7.356;2024-02-26T01:14:31;93998.50;;;3.93;100.00
49999;BME280;68071;45.062;7.356;2024-02-26T01:17:35;94008.28;;;3.76;100.00
49999;BME280;68071;45.062;7.356;2024-02-26T01:20:39;93989.91;;;3.91;100.00
49999;BME280;68071;45.062;7.356;2024-02-26T01:23:44;93994.63;;;3.87;100.00
49999;BME280;68071;45.062;7.356;2024-02-26T01:26:47;93996.09;;;4.10;100.00
49999;BME280;68071;45.062;7.356;2024-02-26T01:29:52;93991.06;;;3.90;100.00
49999;BME280;68071;45.062;7.356;2024-02-26T01:32:56;93982.91;;;3.54;100.00
49999;BME280;68071;45.062;7.356;2024-02-26T01:36:00;93980.19;;;3.69;100.00
49999;BME280;68071;45.062;7.356;2024-02-26T01:39:04;93987.19;;;3.88;100.00
49999;BME280;68071;45.062;7.356;2024-02-26T01:42:08;93983.66;;;3.91;100.00
49999;BME280;68071;45.062;7.356;2024-02-26T01:45:16;93981.72;;;3.88;100.00
49999;BME280;68071;45.062;7.356;2024-02-26T01:48:25;93978.59;;;3.86;100.00
49999;BME280;68071;45.062;7.356;2024-02-26T01:51:30;93975.81;;;4.04;100.00
49999;BME280;68071;45.062;7.356;2024-02-26T01:54:37;93977.28;;;4.34;100.00
49999;BME280;68071;45.062;7.356;2024-02-26T01:57:43;93969.09;;;4.30;100.00
49999;BME280;68071;45.062;7.356;2024-02-26T02:00:49;93973.03;;;4.22;100.00
49999;BME280;68071;45.062;7.356;2024-02-26T02:03:55;93964.81;;;4.29;100.00
49999;BME280;68071;45.062;7.356;2024-02-26T02:07:00;93972.63;;;4.27;100.00
49999;BME280;68071;45.062;7.356;2024-02-26T02:10:06;93970.69;;;4.17;100.00
49999;BME280;68071;45.062;7.356;2024-02-26T02:13:10;93968.75;;;4.17;100.00
49999;BME280;68071;45.062;7.356;2024-02-26T02:16:13;93958.56;;;4.18;100.00
49999;BME280;68071;45.062;7.356;2024-02-26T02:19:17;93959.34;;;4.22;100.00
49999;BME280;68071;45.062;7.356;2024-02-26T02:22:22;93960.16;;;4.08;100.00
49999;BME280;68071;45.062;7.356;2024-02-26T02:25:26;93953.19;;;3.92;100.00
49999;BME280;68071;45.062;7.356;2024-02-26T02:28:32;93943.41;;;4.02;100.00
49999;BME280;68071;45.062;7.356;2024-02-26T02:31:36;93952.47;;;3.67;100.00
49999;BME280;68071;45.062;7.356;2024-02-26T02:34:40;93943.84;;;3.86;100.00
49999;BME280;68071;45.062;7.356;2024-02-26T02:37:45;93943.81;;;4.01;100.00
49999;BME280;68071;45.062;7.356;2024-02-26T02:40:49;93936.00;;;3.96;100.00
49999;BME280;68071;45.062;7.356;2024-02-26T02:43:53;93936.00;;;4.03;100.00
49999;BME280;68071;45.062;7.356;2024-02-26T02:46:58;93930.50;;;3.99;100.00
49999;BME280;68071;45.062;7.356;2024-02-26T02:50:02;93938.34;;;3.93;100.00
49999;BME280;68071;45.062;7.356;2024-02-26T02:53:06;93926.22;;;4.02;100.00
49999;BME280;68071;45.062;7.356;2024-02-26T02:56:10;93926.63;;;3.97;100.00
49999;BME280;68071;45.062;7.356;2024-02-26T02:59:14;93935.66;;;3.86;100.00
49999;BME280;68071;45.062;7.356;2024-02-26T03:02:18;93928.31;;;3.25;100.00
49999;BME280;68071;45.062;7.356;2024-02-26T03:05:22;93927.13;;;3.59;100.00
49999;BME280;68071;45.062;7.356;2024-02-26T03:08:26;93926.38;;;3.22;100.00
49999;BME280;68071;45.062;7.356;2024-02-26T03:11:30;93920.91;;;2.71;100.00
49999;BME280;68071;45.062;7.356;2024-02-26T03:14:34;93918.53;;;2.52;100.00
49999;BME280;68071;45.062;7.356;2024-02-26T03:17:39;93923.97;;;2.52;100.00
49999;BME280;68071;45.062;7.356;2024-02-26T03:20:44;93923.94;;;2.45;100.00
49999;BME280;68071;45.062;7.356;2024-02-26T03:23:48;93913.44;;;2.47;100.00
49999;BME280;68071;45.062;7.356;2024-02-26T03:26:52;93908.75;;;2.40;100.00
49999;BME280;68071;45.062;7.356;2024-02-26T03:29:58;93913.00;;;2.30;100.00
49999;BME280;68071;45.062;7.356;2024-02-26T03:33:02;93906.75;;;2.30;100.00
49999;BME280;68071;45.062;7.356;2024-02-26T03:36:07;93904.84;;;2.30;100.00
49999;BME280;68071;45.062;7.356;2024-02-26T03:39:15;93911.44;;;2.33;100.00
49999;BME280;68071;45.062;7.356;2024-02-26T03:42:19;93911.84;;;2.31;100.00
49999;BME280;68071;45.062;7.356;2024-02-26T03:45:23;93906.00;;;2.29;100.00
49999;BME280;68071;45.062;7.356;2024-02-26T03:48:27;93913.38;;;2.25;100.00
49999;BME280;68071;45.062;7.356;2024-02-26T03:51:31;93905.59;;;2.23;100.00
49999;BME280;68071;45.062;7.356;2024-02-26T03:54:36;93907.13;;;2.21;100.00
49999;BME280;68071;45.062;7.356;2024-02-26T03:57:41;93909.88;;;2.24;100.00
49999;BME280;68071;45.062;7.356;2024-02-26T04:00:45;93904.81;;;2.19;100.00
49999;BME280;68071;45.062;7.356;2024-02-26T04:03:51;93904.41;;;2.21;100.00
49999;BME280;68071;45.062;7.356;2024-02-26T04:06:56;93904.84;;;2.26;100.00
49999;BME280;68071;45.062;7.356;2024-02-26T04:10:01;93901.31;;;2.30;100.00
49999;BME280;68071;45.062;7.356;2024-02-26T04:13:07;93895.84;;;2.30;100.00
49999;BME280;68071;45.062;7.356;2024-02-26T04:16:11;93900.91;;;2.27;100.00
49999;BME280;68071;45.062;7.356;2024-02-26T04:19:15;93903.63;;;2.20;100.00
49999;BME280;68071;45.062;7.356;2024-02-26T04:22:19;93900.50;;;2.22;100.00
49999;BME280;68071;45.062;7.356;2024-02-26T04:25:24;93900.13;;;2.20;100.00
49999;BME280;68071;45.062;7.356;2024-02-26T04:28:51;93912.97;;;2.23;100.00
49999;BME280;68071;45.062;7.356;2024-02-26T04:31:56;93904.78;;;2.16;100.00
49999;BME280;68071;45.062;7.356;2024-02-26T04:35:03;93892.31;;;2.11;100.00
49999;BME280;68071;45.062;7.356;2024-02-26T04:38:08;93900.50;;;2.15;100.00
49999;BME280;68071;45.062;7.356;2024-02-26T04:41:13;93905.19;;;2.21;100.00
49999;BME280;68071;45.062;7.356;2024-02-26T04:44:17;93904.03;;;2.26;100.00
49999;BME280;68071;45.062;7.356;2024-02-26T04:47:21;93897.03;;;2.21;100.00
49999;BME280;68071;45.062;7.356;2024-02-26T04:50:28;93899.34;;;2.19;100.00
49999;BME280;68071;45.062;7.356;2024-02-26T04:53:31;93905.16;;;2.07;100.00
49999;BME280;68071;45.062;7.356;2024-02-26T04:56:35;93905.50;;;1.98;100.00
49999;BME280;68071;45.062;7.356;2024-02-26T04:59:40;93898.91;;;2.03;100.00
49999;BME280;68071;45.062;7.356;2024-02-26T05:02:46;93905.47;;;1.91;100.00
49999;BME280;68071;45.062;7.356;2024-02-26T05:05:51;93900.38;;;1.82;100.00
49999;BME280;68071;45.062;7.356;2024-02-26T05:08:55;93908.56;;;1.86;100.00
49999;BME280;68071;45.062;7.356;2024-02-26T05:11:58;93908.16;;;1.76;100.00
49999;BME280;68071;45.062;7.356;2024-02-26T05:15:03;93908.44;;;1.64;100.00
49999;BME280;68071;45.062;7.356;2024-02-26T05:18:08;93908.03;;;1.55;100.00
49999;BME280;68071;45.062;7.356;2024-02-26T05:21:12;93896.75;;;1.56;100.00
49999;BME280;68071;45.062;7.356;2024-02-26T05:24:16;93897.50;;;1.49;100.00
49999;BME280;68071;45.062;7.356;2024-02-26T05:27:21;93904.09;;;1.48;100.00
49999;BME280;68071;45.062;7.356;2024-02-26T05:30:25;93913.00;;;1.42;100.00
49999;BME280;68071;45.062;7.356;2024-02-26T05:33:31;93914.56;;;1.39;100.00
49999;BME280;68071;45.062;7.356;2024-02-26T05:36:35;93907.91;;;1.33;100.00
49999;BME280;68071;45.062;7.356;2024-02-26T05:39:39;93894.34;;;1.44;100.00
49999;BME280;68071;45.062;7.356;2024-02-26T05:42:43;93883.81;;;1.42;100.00
49999;BME280;68071;45.062;7.356;2024-02-26T05:45:48;93883.13;;;1.53;100.00
49999;BME280;68071;45.062;7.356;2024-02-26T05:48:52;93878.88;;;1.59;100.00
49999;BME280;68071;45.062;7.356;2024-02-26T05:51:57;93899.44;;;1.53;100.00
49999;BME280;68071;45.062;7.356;2024-02-26T05:55:01;93902.84;;;1.35;100.00
49999;BME280;68071;45.062;7.356;2024-02-26T05:58:05;93897.78;;;1.33;100.00
49999;BME280;68071;45.062;7.356;2024-02-26T06:01:09;93888.91;;;1.44;100.00
49999;BME280;68071;45.062;7.356;2024-02-26T06:04:14;93875.66;;;1.42;100.00
49999;BME280;68071;45.062;7.356;2024-02-26T06:07:17;93884.63;;;1.43;100.00
49999;BME280;68071;45.062;7.356;2024-02-26T06:10:22;93879.09;;;1.32;100.00
49999;BME280;68071;45.062;7.356;2024-02-26T06:13:26;93876.78;;;1.34;100.00
49999;BME280;68071;45.062;7.356;2024-02-26T06:16:30;93873.28;;;1.33;100.00
49999;BME280;68071;45.062;7.356;2024-02-26T06:19:34;93876.03;;;1.37;100.00
49999;BME280;68071;45.062;7.356;2024-02-26T06:22:42;93871.78;;;1.43;100.00
49999;BME280;68071;45.062;7.356;2024-02-26T06:25:46;93871.97;;;1.79;100.00
49999;BME280;68071;45.062;7.356;2024-02-26T06:28:51;93880.19;;;1.94;100.00
49999;BME280;68071;45.062;7.356;2024-02-26T06:31:56;93886.09;;;2.10;100.00
49999;BME280;68071;45.062;7.356;2024-02-26T06:35:00;93894.13;;;1.81;100.00
49999;BME280;68071;45.062;7.356;2024-02-26T06:38:04;93892.44;;;1.48;100.00
49999;BME280;68071;45.062;7.356;2024-02-26T06:41:08;93888.22;;;1.65;100.00
49999;BME280;68071;45.062;7.356;2024-02-26T06:44:13;93887.19;;;1.95;100.00
49999;BME280;68071;45.062;7.356;2024-02-26T06:47:17;93903.28;;;2.25;100.00
49999;BME280;68071;45.062;7.356;2024-02-26T06:50:23;93920.84;;;2.53;100.00
49999;BME280;68071;45.062;7.356;2024-02-26T06:53:33;93920.66;;;1.92;100.00
49999;BME280;68071;45.062;7.356;2024-02-26T06:56:57;93923.31;;;1.77;100.00
49999;BME280;68071;45.062;7.356;2024-02-26T07:00:02;93927.16;;;1.65;100.00
49999;BME280;68071;45.062;7.356;2024-02-26T07:03:07;93937.56;;;1.53;100.00
49999;BME280;68071;45.062;7.356;2024-02-26T07:06:14;93948.19;;;1.72;100.00
49999;BME280;68071;45.062;7.356;2024-02-26T07:09:18;93955.19;;;1.70;100.00
49999;BME280;68071;45.062;7.356;2024-02-26T07:12:22;93959.91;;;1.76;100.00
49999;BME280;68071;45.062;7.356;2024-02-26T07:15:27;93951.31;;;1.74;100.00
49999;BME280;68071;45.062;7.356;2024-02-26T07:18:31;93961.06;;;1.79;100.00
49999;BME280;68071;45.062;7.356;2024-02-26T07:21:35;93986.06;;;1.99;100.00
49999;BME280;68071;45.062;7.356;2024-02-26T07:24:43;93990.28;;;1.26;100.00
49999;BME280;68071;45.062;7.356;2024-02-26T07:27:47;93985.28;;;0.49;100.00
49999;BME280;68071;45.062;7.356;2024-02-26T07:30:51;93982.50;;;0.08;100.00
49999;BME280;68071;45.062;7.356;2024-02-26T07:33:55;93983.94;;;-0.02;100.00
49999;BME280;68071;45.062;7.356;2024-02-26T07:36:59;93995.34;;;-0.20;100.00
49999;BME280;68071;45.062;7.356;2024-02-26T07:40:03;93990.09;;;-0.32;100.00
49999;BME280;68071;45.062;7.356;2024-02-26T07:43:08;93987.66;;;-0.41;100.00
49999;BME280;68071;45.062;7.356;2024-02-26T07:46:12;93983.19;;;-0.56;100.00
49999;BME280;68071;45.062;7.356;2024-02-26T07:49:16;93987.75;;;-0.61;100.00
49999;BME280;68071;45.062;7.356;2024-02-26T07:52:20;93992.41;;;-0.61;100.00
49999;BME280;68071;45.062;7.356;2024-02-26T07:55:24;93990.94;;;-0.55;100.00
49999;BME280;68071;45.062;7.356;2024-02-26T07:58:28;93996.50;;;-0.48;100.00
49999;BME280;68071;45.062;7.356;2024-02-26T08:01:32;94001.66;;;-0.39;100.00
49999;BME280;68071;45.062;7.356;2024-02-26T08:04:37;93990.69;;;-0.46;100.00
49999;BME280;68071;45.062;7.356;2024-02-26T08:07:41;93991.47;;;-0.46;100.00
49999;BME280;68071;45.062;7.356;2024-02-26T08:10:46;93998.31;;;0.02;100.00
49999;BME280;68071;45.062;7.356;2024-02-26T08:13:50;93996.25;;;0.22;100.00
49999;BME280;68071;45.062;7.356;2024-02-26T08:16:55;93995.19;;;-0.31;100.00
49999;BME280;68071;45.062;7.356;2024-02-26T08:20:01;93995.13;;;-0.34;100.00
49999;BME280;68071;45.062;7.356;2024-02-26T08:23:06;93987.66;;;-0.41;100.00
49999;BME280;68071;45.062;7.356;2024-02-26T08:26:11;93983.38;;;-0.42;100.00
49999;BME280;68071;45.062;7.356;2024-02-26T08:29:16;93982.81;;;-0.28;100.00
49999;BME280;68071;45.062;7.356;2024-02-26T08:32:29;93967.09;;;0.19;100.00
49999;BME280;68071;45.062;7.356;2024-02-26T08:35:42;93978.69;;;0.16;100.00
49999;BME280;68071;45.062;7.356;2024-02-26T08:38:49;93981.22;;;0.32;100.00
49999;BME280;68071;45.062;7.356;2024-02-26T08:41:53;93971.94;;;0.03;100.00
49999;BME280;68071;45.062;7.356;2024-02-26T08:45:01;93971.56;;;-0.26;100.00
49999;BME280;68071;45.062;7.356;2024-02-26T08:48:07;93965.69;;;-0.32;100.00
49999;BME280;68071;45.062;7.356;2024-02-26T08:51:11;93957.31;;;-0.20;100.00
49999;BME280;68071;45.062;7.356;2024-02-26T08:54:16;93953.56;;;-0.08;100.00
49999;BME280;68071;45.062;7.356;2024-02-26T08:57:21;93952.06;;;-0.05;100.00
49999;BME280;68071;45.062;7.356;2024-02-26T09:00:24;93954.47;;;0.00;100.00
49999;BME280;68071;45.062;7.356;2024-02-26T09:03:28;93953.78;;;0.10;100.00
49999;BME280;68071;45.062;7.356;2024-02-26T09:06:32;93949.34;;;0.29;100.00
49999;BME280;68071;45.062;7.356;2024-02-26T09:09:40;93958.09;;;0.49;100.00
49999;BME280;68071;45.062;7.356;2024-02-26T09:12:45;93959.84;;;0.30;100.00
49999;BME280;68071;45.062;7.356;2024-02-26T09:15:49;93956.69;;;0.28;100.00
49999;BME280;68071;45.062;7.356;2024-02-26T09:18:54;93948.97;;;0.30;100.00
49999;BME280;68071;45.062;7.356;2024-02-26T09:21:58;93949.16;;;0.49;100.00
49999;BME280;68071;45.062;7.356;2024-02-26T09:25:03;93955.38;;;0.90;100.00
49999;BME280;68071;45.062;7.356;2024-02-26T09:28:16;93953.16;;;1.03;100.00
49999;BME280;68071;45.062;7.356;2024-02-26T09:31:21;93959.09;;;1.13;100.00
49999;BME280;68071;45.062;7.356;2024-02-26T09:34:25;93959.59;;;1.29;100.00
49999;BME280;68071;45.062;7.356;2024-02-26T09:37:29;93967.25;;;1.13;100.00
49999;BME280;68071;45.062;7.356;2024-02-26T09:40:33;93958.94;;;1.47;100.00
49999;BME280;68071;45.062;7.356;2024-02-26T09:43:38;93961.28;;;1.52;100.00
49999;BME280;68071;45.062;7.356;2024-02-26T09:46:47;93961.94;;;2.01;100.00
49999;BME280;68071;45.062;7.356;2024-02-26T09:49:53;93974.34;;;1.88;100.00
49999;BME280;68071;45.062;7.356;2024-02-26T09:52:57;93985.59;;;1.79;100.00
49999;BME280;68071;45.062;7.356;2024-02-26T09:56:04;93985.78;;;2.15;100.00
49999;BME280;68071;45.062;7.356;2024-02-26T09:59:10;93996.59;;;1.97;100.00
49999;BME280;68071;45.062;7.356;2024-02-26T10:02:18;93994.97;;;1.89;100.00
49999;BME280;68071;45.062;7.356;2024-02-26T10:05:25;94009.44;;;1.41;100.00
49999;BME280;68071;45.062;7.356;2024-02-26T10:08:30;94004.22;;;1.17;100.00
49999;BME280;68071;45.062;7.356;2024-02-26T10:11:35;94002.78;;;0.89;100.00
49999;BME280;68071;45.062;7.356;2024-02-26T10:14:42;93998.97;;;0.98;100.00
49999;BME280;68071;45.062;7.356;2024-02-26T10:17:49;93997.75;;;0.92;100.00
49999;BME280;68071;45.062;7.356;2024-02-26T10:21:03;93995.47;;;0.97;100.00
49999;BME280;68071;45.062;7.356;2024-02-26T10:24:13;94004.25;;;1.25;100.00
49999;BME280;68071;45.062;7.356;2024-02-26T10:27:18;94002.00;;;1.34;100.00
49999;BME280;68071;45.062;7.356;2024-02-26T10:30:22;94011.50;;;1.55;100.00
49999;BME280;68071;45.062;7.356;2024-02-26T10:33:27;94005.03;;;1.77;100.00
49999;BME280;68071;45.062;7.356;2024-02-26T10:36:33;93999.94;;;1.69;100.00
49999;BME280;68071;45.062;7.356;2024-02-26T10:39:37;94013.13;;;1.18;100.00
49999;BME280;68071;45.062;7.356;2024-02-26T10:42:42;94016.59;;;1.15;100.00
49999;BME280;68071;45.062;7.356;2024-02-26T10:45:46;94020.41;;;1.03;100.00
49999;BME280;68071;45.062;7.356;2024-02-26T10:48:52;94010.53;;;0.87;100.00
49999;BME280;68071;45.062;7.356;2024-02-26T10:51:56;94023.34;;;0.87;100.00
49999;BME280;68071;45.062;7.356;2024-02-26T10:55:02;94032.28;;;0.87;100.00
49999;BME280;68071;45.062;7.356;2024-02-26T10:58:08;94030.81;;;0.94;100.00
49999;BME280;68071;45.062;7.356;2024-02-26T11:01:14;94030.69;;;0.83;100.00
49999;BME280;68071;45.062;7.356;2024-02-26T11:04:18;94020.72;;;0.94;100.00
49999;BME280;68071;45.062;7.356;2024-02-26T11:07:24;94010.81;;;0.79;100.00
49999;BME280;68071;45.062;7.356;2024-02-26T11:10:29;94014.69;;;0.78;100.00
49999;BME280;68071;45.062;7.356;2024-02-26T11:13:36;94003.81;;;0.78;100.00
49999;BME280;68071;45.062;7.356;2024-02-26T11:16:42;94000.41;;;0.84;100.00
49999;BME280;68071;45.062;7.356;2024-02-26T11:19:48;94003.53;;;0.86;100.00
49999;BME280;68071;45.062;7.356;2024-02-26T11:22:53;94003.19;;;0.92;100.00
49999;BME280;68071;45.062;7.356;2024-02-26T11:25:57;94005.56;;;0.97;100.00
49999;BME280;68071;45.062;7.356;2024-02-26T11:29:03;94006.09;;;1.10;100.00
49999;BME280;68071;45.062;7.356;2024-02-26T11:32:08;93999.19;;;1.23;100.00
49999;BME280;68071;45.062;7.356;2024-02-26T11:35:13;93997.97;;;1.65;100.00
49999;BME280;68071;45.062;7.356;2024-02-26T11:38:24;94003.06;;;1.74;100.00
49999;BME280;68071;45.062;7.356;2024-02-26T11:41:30;94007.03;;;1.28;100.00
49999;BME280;68071;45.062;7.356;2024-02-26T11:44:35;94007.69;;;1.14;100.00
49999;BME280;68071;45.062;7.356;2024-02-26T11:47:55;94002.25;;;1.18;100.00
49999;BME280;68071;45.062;7.356;2024-02-26T11:51:00;93991.78;;;1.20;100.00
49999;BME280;68071;45.062;7.356;2024-02-26T11:54:04;93992.97;;;1.23;100.00
49999;BME280;68071;45.062;7.356;2024-02-26T11:57:29;93990.47;;;1.51;100.00
49999;BME280;68071;45.062;7.356;2024-02-26T12:00:34;93982.22;;;1.41;100.00
49999;BME280;68071;45.062;7.356;2024-02-26T12:03:39;93986.91;;;1.40;100.00
49999;BME280;68071;45.062;7.356;2024-02-26T12:10:36;93995.44;;;2.02;100.00
49999;BME280;68071;45.062;7.356;2024-02-26T12:13:39;93992.50;;;2.39;100.00
49999;BME280;68071;45.062;7.356;2024-02-26T12:16:43;94003.34;;;2.25;100.00
49999;BME280;68071;45.062;7.356;2024-02-26T12:19:49;93994.25;;;1.95;100.00
49999;BME280;68071;45.062;7.356;2024-02-26T12:22:54;93996.13;;;1.88;100.00
49999;BME280;68071;45.062;7.356;2024-02-26T12:26:00;93985.72;;;2.01;100.00
49999;BME280;68071;45.062;7.356;2024-02-26T12:29:05;93991.94;;;2.01;100.00
49999;BME280;68071;45.062;7.356;2024-02-26T12:32:09;93990.41;;;2.04;100.00
49999;BME280;68071;45.062;7.356;2024-02-26T12:35:15;93985.25;;;1.88;100.00
49999;BME280;68071;45.062;7.356;2024-02-26T12:38:20;93980.25;;;1.97;100.00
49999;BME280;68071;45.062;7.356;2024-02-26T12:41:24;93977.94;;;2.10;100.00
49999;BME280;68071;45.062;7.356;2024-02-26T12:44:29;93983.25;;;1.81;100.00
49999;BME280;68071;45.062;7.356;2024-02-26T12:47:35;93975.63;;;2.08;100.00
49999;BME280;68071;45.062;7.356;2024-02-26T12:50:44;93971.03;;;2.31;100.00
49999;BME280;68071;45.062;7.356;2024-02-26T12:53:49;93989.06;;;2.61;100.00
49999;BME280;68071;45.062;7.356;2024-02-26T12:56:56;94002.81;;;3.22;100.00
49999;BME280;68071;45.062;7.356;2024-02-26T13:00:00;94009.09;;;3.59;100.00
49999;BME280;68071;45.062;7.356;2024-02-26T13:03:05;94001.25;;;3.83;100.00
49999;BME280;68071;45.062;7.356;2024-02-26T13:12:26;94000.88;;;3.30;100.00
49999;BME280;68071;45.062;7.356;2024-02-26T13:15:30;94005.16;;;3.56;100.00
49999;BME280;68071;45.062;7.356;2024-02-26T13:18:36;93996.56;;;3.72;100.00
49999;BME280;68071;45.062;7.356;2024-02-26T13:21:40;93994.59;;;3.84;100.00
49999;BME280;68071;45.062;7.356;2024-02-26T13:24:53;93993.41;;;2.94;100.00
49999;BME280;68071;45.062;7.356;2024-02-26T13:28:09;93993.72;;;2.60;100.00
49999;BME280;68071;45.062;7.356;2024-02-26T13:31:13;93988.63;;;2.51;100.00
49999;BME280;68071;45.062;7.356;2024-02-26T13:34:27;93985.59;;;2.82;100.00
49999;BME280;68071;45.062;7.356;2024-02-26T13:37:31;93977.78;;;2.73;100.00
49999;BME280;68071;45.062;7.356;2024-02-26T13:40:35;93989.13;;;2.86;100.00
49999;BME280;68071;45.062;7.356;2024-02-26T13:43:39;93999.69;;;3.20;100.00
49999;BME280;68071;45.062;7.356;2024-02-26T13:46:43;94012.59;;;3.77;100.00
49999;BME280;68071;45.062;7.356;2024-02-26T13:49:47;94026.63;;;3.87;100.00
49999;BME280;68071;45.062;7.356;2024-02-26T13:52:51;94023.44;;;4.24;100.00
49999;BME280;68071;45.062;7.356;2024-02-26T13:55:57;94034.03;;;4.01;100.00
49999;BME280;68071;45.062;7.356;2024-02-26T13:59:05;94031.66;;;4.06;100.00
49999;BME280;68071;45.062;7.356;2024-02-26T14:02:09;94042.19;;;4.15;100.00
49999;BME280;68071;45.062;7.356;2024-02-26T14:05:14;94039.78;;;4.35;100.00
49999;BME280;68071;45.062;7.356;2024-02-26T14:08:18;94018.28;;;4.45;100.00
49999;BME280;68071;45.062;7.356;2024-02-26T14:11:22;94028.41;;;4.51;100.00
49999;BME280;68071;45.062;7.356;2024-02-26T14:14:30;94040.16;;;4.48;100.00
49999;BME280;68071;45.062;7.356;2024-02-26T14:17:36;94042.16;;;4.33;100.00
49999;BME280;68071;45.062;7.356;2024-02-26T14:20:40;94029.34;;;3.94;100.00
49999;BME280;68071;45.062;7.356;2024-02-26T14:23:44;94033.25;;;3.42;100.00
49999;BME280;68071;45.062;7.356;2024-02-26T14:26:48;94021.94;;;3.18;100.00
49999;BME280;68071;45.062;7.356;2024-02-26T14:29:52;94009.75;;;2.80;100.00
49999;BME280;68071;45.062;7.356;2024-02-26T14:32:56;94017.16;;;2.68;100.00
49999;BME280;68071;45.062;7.356;2024-02-26T14:36:00;94021.75;;;2.53;100.00
49999;BME280;68071;45.062;7.356;2024-02-26T14:39:05;94026.50;;;2.71;100.00
49999;BME280;68071;45.062;7.356;2024-02-26T14:42:09;94020.34;;;3.07;100.00
49999;BME280;68071;45.062;7.356;2024-02-26T14:45:13;94009.41;;;2.92;100.00
49999;BME280;68071;45.062;7.356;2024-02-26T14:48:17;94008.56;;;2.66;100.00
49999;BME280;68071;45.062;7.356;2024-02-26T14:51:22;94010.84;;;2.50;100.00
49999;BME280;68071;45.062;7.356;2024-02-26T14:54:26;94015.16;;;2.54;100.00
49999;BME280;68071;45.062;7.356;2024-02-26T14:57:30;94014.44;;;2.86;100.00
49999;BME280;68071;45.062;7.356;2024-02-26T15:00:34;94014.50;;;3.01;100.00
49999;BME280;68071;45.062;7.356;2024-02-26T15:03:38;94010.59;;;2.91;100.00
49999;BME280;68071;45.062;7.356;2024-02-26T15:06:42;94007.06;;;2.94;100.00
49999;BME280;68071;45.062;7.356;2024-02-26T15:09:46;94013.34;;;3.06;100.00
49999;BME280;68071;45.062;7.356;2024-02-26T15:12:51;94016.06;;;3.09;100.00
49999;BME280;68071;45.062;7.356;2024-02-26T15:15:57;94017.22;;;3.05;100.00
49999;BME280;68071;45.062;7.356;2024-02-26T15:19:01;94013.31;;;2.98;100.00
49999;BME280;68071;45.062;7.356;2024-02-26T15:22:07;94018.03;;;3.09;100.00
49999;BME280;68071;45.062;7.356;2024-02-26T15:25:10;94015.84;;;2.33;100.00
49999;BME280;68071;45.062;7.356;2024-02-26T15:28:14;94019.06;;;2.64;100.00
49999;BME280;68071;45.062;7.356;2024-02-26T15:31:20;94005.91;;;3.02;100.00
49999;BME280;68071;45.062;7.356;2024-02-26T15:34:24;93992.28;;;3.17;100.00
49999;BME280;68071;45.062;7.356;2024-02-26T15:37:28;93982.09;;;2.81;100.00
49999;BME280;68071;45.062;7.356;2024-02-26T15:40:32;93995.78;;;3.25;100.00
49999;BME280;68071;45.062;7.356;2024-02-26T15:43:36;93997.38;;;3.58;100.00
49999;BME280;68071;45.062;7.356;2024-02-26T15:46:41;93996.16;;;3.74;100.00
49999;BME280;68071;45.062;7.356;2024-02-26T15:49:45;94007.09;;;3.85;100.00
49999;BME280;68071;45.062;7.356;2024-02-26T15:52:49;94020.38;;;3.79;100.00
49999;BME280;68071;45.062;7.356;2024-02-26T15:55:53;94008.69;;;3.53;100.00
49999;BME280;68071;45.062;7.356;2024-02-26T15:58:57;94005.53;;;3.11;100.00
49999;BME280;68071;45.062;7.356;2024-02-26T16:02:01;94023.06;;;2.99;100.00
49999;BME280;68071;45.062;7.356;2024-02-26T16:05:07;94051.56;;;3.24;100.00
49999;BME280;68071;45.062;7.356;2024-02-26T16:08:20;94078.47;;;3.22;100.00
49999;BME280;68071;45.062;7.356;2024-02-26T16:11:25;94077.31;;;3.23;100.00
49999;BME280;68071;45.062;7.356;2024-02-26T16:17:42;94081.19;;;3.07;100.00
49999;BME280;68071;45.062;7.356;2024-02-26T16:20:50;94078.09;;;3.16;100.00
49999;BME280;68071;45.062;7.356;2024-02-26T16:23:54;94064.00;;;2.99;100.00
49999;BME280;68071;45.062;7.356;2024-02-26T16:26:58;94071.06;;;3.08;100.00
49999;BME280;68071;45.062;7.356;2024-02-26T16:30:03;94073.84;;;3.37;100.00
49999;BME280;68071;45.062;7.356;2024-02-26T16:33:11;94083.59;;;3.41;100.00
49999;BME280;68071;45.062;7.356;2024-02-26T16:36:15;94090.63;;;3.42;100.00
49999;BME280;68071;45.062;7.356;2024-02-26T16:39:19;94101.91;;;3.33;100.00